Time;durP1;ratioP1;P1;durP2;ratioP2;P2;SDS_P1;SDS_P2;PMS_P1;PMS_P2;Temp;Humidity;BMP_temperature;BMP_pressure;BME280_temperature;BME280_humidity;BME280_pressure;Samples;Min_cycle;Max_cycle;Signal;HPM_P1;HPM_P2
2021/10/29 00:02:10;;;;;;;8.73;5.30;;;10.40;99.90;;;;;;6234627;22;20199;-87
2021/10/29 00:04:36;;;;;;;7.97;5.10;;;10.40;99.90;;;;;;6210335;22;20499;-88
2021/10/29 00:07:02;;;;;;;9.27;5.23;;;10.40;99.90;;;;;;6261149;22;20729;-87
2021/10/29 00:09:30;;;;;;;4.40;3.90;;;10.30;99.90;;;;;;6209611;22;20213;-87
2021/10/29 00:11:56;;;;;;;8.23;4.70;;;10.30;99.90;;;;;;6210143;22;20699;-87
2021/10/29 00:14:22;;;;;;;5.83;4.30;;;10.30;99.90;;;;;;6184244;22;20323;-87
2021/10/29 00:16:48;;;;;;;9.63;6.20;;;10.30;99.90;;;;;;6235664;22;20204;-87
2021/10/29 00:19:14;;;;;;;6.53;4.63;;;10.30;99.90;;;;;;6261983;22;20192;-87
2021/10/29 00:21:39;;;;;;;8.27;4.63;;;10.30;99.90;;;;;;6235054;22;20242;-86
2021/10/29 00:24:05;;;;;;;7.90;4.63;;;10.20;99.90;;;;;;6209566;22;20215;-86
2021/10/29 00:26:31;;;;;;;5.80;4.67;;;10.20;99.90;;;;;;6234111;22;20227;-88
2021/10/29 00:28:57;;;;;;;7.87;4.73;;;10.10;99.90;;;;;;6234819;22;20188;-89
2021/10/29 00:31:22;;;;;;;7.33;4.70;;;10.10;99.90;;;;;;6235688;22;20564;-88
2021/10/29 00:33:48;;;;;;;7.63;4.73;;;10.00;99.90;;;;;;6213239;22;20255;-87
2021/10/29 00:36:14;;;;;;;10.43;5.67;;;10.10;99.90;;;;;;6214056;22;20275;-88
2021/10/29 00:38:39;;;;;;;10.37;5.70;;;10.00;99.90;;;;;;6189461;22;20196;-87
2021/10/29 00:41:05;;;;;;;7.47;4.20;;;10.00;99.90;;;;;;6265978;22;20196;-87
2021/10/29 00:43:31;;;;;;;7.60;5.37;;;10.00;99.90;;;;;;6214825;22;20156;-88
2021/10/29 00:45:57;;;;;;;8.40;4.90;;;10.00;99.90;;;;;;6189577;22;20754;-87
2021/10/29 00:48:23;;;;;;;7.47;4.00;;;10.00;99.90;;;;;;6240040;22;20962;-84
2021/10/29 00:50:49;;;;;;;7.47;4.97;;;10.00;99.90;;;;;;6239859;22;20203;-86
2021/10/29 00:53:15;;;;;;;9.10;4.70;;;10.10;99.90;;;;;;6266545;22;20188;-88
2021/10/29 00:55:41;;;;;;;8.93;4.27;;;10.00;99.90;;;;;;6239500;22;20235;-87
2021/10/29 00:58:07;;;;;;;6.77;3.80;;;10.00;99.90;;;;;;6240109;22;20156;-86
2021/10/29 01:00:33;;;;;;;9.10;5.13;;;9.90;99.90;;;;;;6266260;22;20230;-87
2021/10/29 01:02:59;;;;;;;9.33;6.17;;;10.00;99.90;;;;;;6189308;22;20657;-87
2021/10/29 01:05:25;;;;;;;6.93;4.63;;;9.90;99.90;;;;;;6189827;22;20194;-87
2021/10/29 01:07:52;;;;;;;8.00;4.70;;;10.00;99.90;;;;;;6239730;22;20504;-87
2021/10/29 01:10:18;;;;;;;8.80;5.80;;;10.00;99.90;;;;;;6240180;22;20376;-89
2021/10/29 01:12:44;;;;;;;10.00;5.10;;;10.00;99.90;;;;;;6189394;22;20197;-88
2021/10/29 01:15:10;;;;;;;6.40;3.97;;;10.00;99.90;;;;;;6234277;22;20288;-87
2021/10/29 01:17:37;;;;;;;6.43;4.30;;;10.00;99.90;;;;;;6234221;22;20525;-86
2021/10/29 01:20:05;;;;;;;8.17;5.37;;;10.10;99.90;;;;;;6235591;22;20247;-88
2021/10/29 01:22:30;;;;;;;8.63;4.60;;;10.10;99.90;;;;;;6235125;23;20187;-88
2021/10/29 01:24:56;;;;;;;9.47;6.07;;;10.10;99.90;;;;;;6234403;22;21094;-88
2021/10/29 01:27:22;;;;;;;7.23;4.67;;;10.10;99.90;;;;;;6208757;23;20204;-87
2021/10/29 01:29:49;;;;;;;7.80;3.87;;;10.00;99.90;;;;;;6208922;23;20243;-87
2021/10/29 01:32:15;;;;;;;15.70;6.63;;;10.00;99.90;;;;;;6184281;23;20209;-86
2021/10/29 01:34:42;;;;;;;9.07;4.30;;;9.80;99.90;;;;;;6235497;22;20181;-88
2021/10/29 01:37:10;;;;;;;10.20;5.70;;;9.80;99.90;;;;;;6233893;23;20169;-87
2021/10/29 01:39:38;;;;;;;9.67;5.43;;;9.80;99.90;;;;;;6235687;22;20586;-88
2021/10/29 01:42:04;;;;;;;8.63;5.87;;;9.80;99.90;;;;;;6234696;22;20332;-87
2021/10/29 01:44:30;;;;;;;8.60;5.23;;;9.80;99.90;;;;;;6209393;23;20264;-88
2021/10/29 01:46:56;;;;;;;6.17;4.67;;;9.70;99.90;;;;;;6234507;22;20944;-88
2021/10/29 01:49:22;;;;;;;8.37;4.17;;;9.80;99.90;;;;;;6235424;23;20197;-87
2021/10/29 01:51:48;;;;;;;4.13;3.47;;;9.80;99.90;;;;;;6234388;22;20197;-87
2021/10/29 01:54:14;;;;;;;4.87;4.37;;;9.80;99.90;;;;;;6235078;22;20204;-88
2021/10/29 01:56:40;;;;;;;6.83;4.00;;;9.80;99.90;;;;;;6236925;22;20200;-87
2021/10/29 01:59:06;;;;;;;9.43;5.10;;;9.80;99.90;;;;;;6236992;22;20593;-88
2021/10/29 02:01:32;;;;;;;11.53;4.83;;;9.80;99.90;;;;;;6237546;23;20216;-89
2021/10/29 02:03:58;;;;;;;9.63;6.27;;;9.70;99.90;;;;;;6210772;23;20196;-88
2021/10/29 02:06:24;;;;;;;9.40;5.20;;;9.70;99.90;;;;;;6236103;22;20429;-88
2021/10/29 02:08:50;;;;;;;9.70;5.90;;;9.70;99.90;;;;;;6236309;22;20652;-89
2021/10/29 02:11:16;;;;;;;10.70;5.40;;;9.70;99.90;;;;;;6235653;22;20636;-87
2021/10/29 02:13:42;;;;;;;10.40;5.30;;;9.70;99.90;;;;;;6236186;22;20205;-86
2021/10/29 02:16:08;;;;;;;9.03;5.27;;;9.70;99.90;;;;;;6236791;23;20214;-88
2021/10/29 02:18:34;;;;;;;7.07;5.03;;;9.80;99.90;;;;;;6207741;23;21123;-88
2021/10/29 02:21:00;;;;;;;7.97;4.03;;;9.80;99.90;;;;;;6234371;22;20513;-87
2021/10/29 02:23:26;;;;;;;5.97;4.77;;;9.90;99.90;;;;;;6206529;23;20200;-88
2021/10/29 02:25:52;;;;;;;10.67;5.70;;;9.90;99.90;;;;;;6209354;22;20371;-86
2021/10/29 02:28:20;;;;;;;6.83;4.10;;;9.90;99.90;;;;;;6235068;23;20257;-90
2021/10/29 02:30:47;;;;;;;10.50;4.87;;;9.90;99.90;;;;;;6234945;22;20276;-86
2021/10/29 02:33:16;;;;;;;8.87;5.50;;;10.00;99.90;;;;;;6206818;23;20200;-90
2021/10/29 02:35:43;;;;;;;9.97;5.83;;;10.00;99.90;;;;;;6231598;22;20197;-86
2021/10/29 02:38:10;;;;;;;8.97;6.63;;;9.90;99.90;;;;;;6231337;22;20193;-87
2021/10/29 02:40:36;;;;;;;7.17;4.20;;;9.90;99.90;;;;;;6232409;23;20164;-87
2021/10/29 02:43:02;;;;;;;6.93;4.77;;;9.80;99.90;;;;;;6205838;23;20224;-88
2021/10/29 02:45:28;;;;;;;10.97;5.07;;;9.80;99.90;;;;;;6207183;23;20215;-88
2021/10/29 02:47:54;;;;;;;7.13;4.23;;;9.80;99.90;;;;;;6234296;22;20193;-87
2021/10/29 02:50:21;;;;;;;8.33;5.47;;;9.80;99.90;;;;;;6236630;22;20252;-88
2021/10/29 02:52:47;;;;;;;8.97;4.93;;;9.80;99.90;;;;;;6235582;22;20241;-84
2021/10/29 02:55:14;;;;;;;10.50;5.00;;;9.80;99.90;;;;;;6236971;22;20215;-87
2021/10/29 02:57:41;;;;;;;11.73;6.10;;;9.80;99.90;;;;;;6235488;22;20203;-87
2021/10/29 03:00:11;;;;;;;10.63;5.57;;;9.70;99.90;;;;;;6235561;22;20247;-87
2021/10/29 03:02:37;;;;;;;6.73;4.17;;;9.70;99.90;;;;;;6235604;22;20189;-87
2021/10/29 03:05:04;;;;;;;10.07;5.40;;;9.70;99.90;;;;;;6235252;22;20305;-88
2021/10/29 03:07:30;;;;;;;10.93;5.67;;;9.70;99.90;;;;;;6235310;23;20157;-87
2021/10/29 03:09:56;;;;;;;7.40;4.90;;;9.60;99.90;;;;;;6207868;23;20205;-88
2021/10/29 03:12:23;;;;;;;6.67;4.80;;;9.70;99.90;;;;;;6231087;22;20284;-88
2021/10/29 03:14:49;;;;;;;7.47;4.83;;;9.70;99.90;;;;;;6232007;22;20209;-88
2021/10/29 03:17:15;;;;;;;8.60;5.43;;;9.70;99.90;;;;;;6208047;23;20276;-88
2021/10/29 03:19:41;;;;;;;8.80;6.50;;;9.60;99.90;;;;;;6233007;22;20162;-89
2021/10/29 03:22:07;;;;;;;5.90;4.37;;;9.60;99.90;;;;;;6236795;22;20161;-89
2021/10/29 03:24:33;;;;;;;7.27;4.63;;;9.60;99.90;;;;;;6208974;23;20197;-88
2021/10/29 03:26:59;;;;;;;7.40;5.30;;;9.60;99.90;;;;;;6234596;22;20208;-88
2021/10/29 03:29:25;;;;;;;11.67;5.13;;;9.60;99.90;;;;;;6184250;23;20724;-86
2021/10/29 03:31:51;;;;;;;9.00;5.33;;;9.60;99.90;;;;;;6236004;22;20268;-89
2021/10/29 03:34:17;;;;;;;4.73;3.83;;;9.60;99.90;;;;;;6236927;22;20212;-88
2021/10/29 03:36:43;;;;;;;13.40;4.47;;;9.60;99.90;;;;;;6235131;22;20200;-88
2021/10/29 03:39:16;;;;;;;6.40;4.60;;;9.60;99.90;;;;;;6209698;23;20200;-88
2021/10/29 03:41:50;;;;;;;6.07;4.57;;;9.70;99.90;;;;;;6235556;22;20201;-87
2021/10/29 03:45:05;;;;;;;9.57;4.80;;;9.60;99.90;;;;;;6211296;23;20266;-87
2021/10/29 03:47:03;;;;;;;8.13;5.10;;;9.60;99.90;;;;;;6229947;22;20238;-88
2021/10/29 03:49:37;;;;;;;11.03;5.77;;;9.60;99.90;;;;;;6210247;23;20193;-88
2021/10/29 03:52:14;;;;;;;8.00;4.53;;;9.60;99.90;;;;;;6211031;23;20196;-87
2021/10/29 03:54:41;;;;;;;5.47;3.90;;;9.60;99.90;;;;;;6235018;22;20193;-88
2021/10/29 03:57:23;;;;;;;8.73;4.73;;;9.60;99.90;;;;;;6185485;23;20212;-86
2021/10/29 03:59:49;;;;;;;11.00;4.73;;;9.60;99.90;;;;;;6235109;22;20201;-89
2021/10/29 04:02:15;;;;;;;8.50;5.00;;;9.60;99.90;;;;;;6210023;23;20185;-88
2021/10/29 04:04:40;;;;;;;8.60;5.60;;;9.60;99.90;;;;;;6235945;22;20838;-86
2021/10/29 04:07:06;;;;;;;10.07;5.37;;;9.50;99.90;;;;;;6210577;23;20200;-88
2021/10/29 04:09:32;;;;;;;6.13;5.33;;;9.50;99.90;;;;;;6209266;23;20296;-89
2021/10/29 04:11:58;;;;;;;11.10;5.87;;;9.40;99.90;;;;;;6210024;23;20633;-90
2021/10/29 04:14:28;;;;;;;10.03;5.20;;;9.40;99.90;;;;;;6208993;23;20773;-90
2021/10/29 04:16:55;;;;;;;10.17;6.27;;;9.40;99.90;;;;;;6184619;22;20165;-88
2021/10/29 04:19:21;;;;;;;6.43;5.03;;;9.40;99.90;;;;;;6236185;23;20161;-85
2021/10/29 04:21:47;;;;;;;9.60;4.70;;;9.40;99.90;;;;;;6238342;22;20209;-89
2021/10/29 04:24:13;;;;;;;5.70;4.93;;;9.40;99.90;;;;;;6237034;22;20197;-89
2021/10/29 04:26:40;;;;;;;6.60;5.47;;;9.40;99.90;;;;;;6234844;22;20197;-90
2021/10/29 04:29:17;;;;;;;8.73;4.73;;;9.40;99.90;;;;;;6234721;22;20276;-88
2021/10/29 04:31:49;;;;;;;6.30;3.67;;;9.40;99.90;;;;;;6232255;22;20544;-90
2021/10/29 04:34:25;;;;;;;10.00;3.80;;;9.40;99.90;;;;;;6233871;22;20216;-88
2021/10/29 04:36:53;;;;;;;5.63;5.13;;;9.40;99.90;;;;;;6209592;23;20489;-89
2021/10/29 04:39:20;;;;;;;7.07;4.20;;;9.30;99.90;;;;;;6206706;23;20204;-88
2021/10/29 04:41:50;;;;;;;8.30;3.97;;;9.30;99.90;;;;;;6231464;22;20525;-88
2021/10/29 04:44:18;;;;;;;5.47;3.73;;;9.30;99.90;;;;;;6231151;22;20379;-88
2021/10/29 04:46:44;;;;;;;8.30;5.67;;;9.40;99.90;;;;;;6232124;22;20576;-89
2021/10/29 04:49:10;;;;;;;7.57;5.37;;;9.40;99.90;;;;;;6232485;23;20201;-89
2021/10/29 04:51:35;;;;;;;6.03;4.77;;;9.40;99.90;;;;;;6231681;22;20193;-88
2021/10/29 04:54:01;;;;;;;10.80;5.20;;;9.40;99.90;;;;;;6232511;22;20197;-88
2021/10/29 04:56:28;;;;;;;8.33;3.93;;;9.50;99.90;;;;;;6233088;22;20204;-89
2021/10/29 04:58:54;;;;;;;8.03;5.97;;;9.50;99.90;;;;;;6231674;22;20552;-88
2021/10/29 05:01:19;;;;;;;11.33;5.00;;;9.50;99.90;;;;;;6233797;22;20579;-89
2021/10/29 05:03:45;;;;;;;8.87;4.63;;;9.50;99.90;;;;;;6231392;22;20193;-89
2021/10/29 05:06:11;;;;;;;8.60;5.77;;;9.50;99.90;;;;;;6181847;23;20189;-88
2021/10/29 05:08:38;;;;;;;5.87;3.80;;;9.50;99.90;;;;;;6232025;22;20735;-89
2021/10/29 05:11:05;;;;;;;7.43;5.03;;;9.60;99.90;;;;;;6232889;22;20190;-88
2021/10/29 05:13:31;;;;;;;8.63;5.47;;;9.60;99.90;;;;;;6237014;22;20184;-91
2021/10/29 05:15:57;;;;;;;8.37;5.60;;;9.70;99.90;;;;;;6263305;22;20204;-88
2021/10/29 05:18:23;;;;;;;8.73;5.00;;;9.60;99.90;;;;;;6236682;22;20283;-89
2021/10/29 05:20:49;;;;;;;9.87;5.90;;;9.60;99.90;;;;;;6187041;22;20216;-89
2021/10/29 05:23:15;;;;;;;5.40;4.67;;;9.70;99.90;;;;;;6211320;22;20181;-90
2021/10/29 05:25:41;;;;;;;7.67;4.73;;;9.60;99.90;;;;;;6263595;22;20156;-89
2021/10/29 05:28:07;;;;;;;9.10;4.37;;;9.70;99.90;;;;;;6265985;22;20153;-89
2021/10/29 05:30:33;;;;;;;8.97;4.07;;;9.70;99.90;;;;;;6238788;22;20204;-88
2021/10/29 05:32:59;;;;;;;6.20;4.27;;;9.70;99.90;;;;;;6212997;22;20276;-89
2021/10/29 05:35:25;;;;;;;4.50;3.90;;;9.70;99.90;;;;;;6238452;22;20238;-88
2021/10/29 05:37:51;;;;;;;4.67;2.87;;;9.70;99.90;;;;;;6238469;22;20152;-88
2021/10/29 05:40:17;;;;;;;8.87;3.80;;;9.70;99.90;;;;;;6239045;22;20157;-89
2021/10/29 05:42:43;;;;;;;9.47;4.80;;;9.70;99.90;;;;;;6239600;22;20218;-89
2021/10/29 05:45:11;;;;;;;9.33;5.83;;;9.70;99.90;;;;;;6213308;22;20678;-90
2021/10/29 05:47:38;;;;;;;8.13;4.43;;;9.70;99.90;;;;;;6238005;22;20238;-90
2021/10/29 05:50:09;;;;;;;7.67;4.63;;;9.70;99.90;;;;;;6237878;22;20876;-90
2021/10/29 05:52:39;;;;;;;7.00;4.77;;;9.60;99.90;;;;;;6213572;22;20145;-89
2021/10/29 05:55:19;;;;;;;6.50;5.40;;;9.60;99.90;;;;;;6239296;22;20204;-89
2021/10/29 05:57:50;;;;;;;7.33;5.03;;;9.60;99.90;;;;;;6240779;22;20595;-88
2021/10/29 06:00:21;;;;;;;7.00;3.77;;;9.60;99.90;;;;;;6238445;22;20251;-89
2021/10/29 06:02:47;;;;;;;5.10;4.33;;;9.60;99.90;;;;;;6264987;22;20615;-89
2021/10/29 06:05:14;;;;;;;10.67;5.20;;;9.60;99.90;;;;;;6238993;22;20188;-88
2021/10/29 06:07:41;;;;;;;10.97;4.47;;;9.60;99.90;;;;;;6265292;22;20157;-86
2021/10/29 06:10:08;;;;;;;8.87;5.63;;;9.60;99.90;;;;;;6213227;22;20196;-89
2021/10/29 06:12:37;;;;;;;4.93;3.83;;;9.60;99.90;;;;;;6237875;22;20258;-87
2021/10/29 06:15:04;;;;;;;7.23;4.27;;;9.60;99.90;;;;;;6213713;22;20313;-90
2021/10/29 06:17:31;;;;;;;6.50;4.47;;;9.60;99.90;;;;;;6212868;22;20255;-88
2021/10/29 06:19:56;;;;;;;6.60;5.00;;;9.60;99.90;;;;;;6188877;22;20203;-87
2021/10/29 06:22:33;;;;;;;9.30;4.23;;;9.60;99.90;;;;;;6238720;22;20161;-87
2021/10/29 06:25:07;;;;;;;5.47;3.50;;;9.70;99.90;;;;;;6238032;22;20351;-89
2021/10/29 06:30:04;;;;;;;10.03;5.43;;;9.60;99.90;;;;;;6215322;22;20205;-89
2021/10/29 06:32:30;;;;;;;10.43;5.50;;;9.70;99.90;;;;;;6212503;22;20184;-88
2021/10/29 06:34:56;;;;;;;3.63;3.17;;;9.70;99.90;;;;;;6239135;22;20236;-89
2021/10/29 06:37:22;;;;;;;5.97;3.87;;;9.70;99.90;;;;;;6266632;22;20183;-89
2021/10/29 06:39:50;;;;;;;4.00;3.60;;;9.70;99.90;;;;;;6237984;22;20624;-87
2021/10/29 06:42:28;;;;;;;8.47;4.27;;;9.70;99.90;;;;;;6213283;22;20263;-87
2021/10/29 06:47:53;;;;;;;3.17;2.83;;;9.90;99.90;;;;;;6162690;22;20214;-87
2021/10/29 07:02:04;;;;;;;7.80;3.67;;;10.30;99.90;;;;;;6265755;22;20567;-90
2021/10/29 07:12:22;;;;;;;7.17;4.30;;;10.60;99.90;;;;;;6242654;22;20647;-90
2021/10/29 07:42:17;;;;;;;8.53;4.97;;;10.90;99.90;;;;;;6265099;22;20642;-90
2021/10/29 07:44:43;;;;;;;9.23;4.17;;;10.90;99.90;;;;;;6213969;22;20489;-91
2021/10/29 07:47:09;;;;;;;11.17;4.97;;;10.90;99.90;;;;;;6265571;22;20192;-90
2021/10/29 07:49:35;;;;;;;8.37;4.47;;;11.00;99.90;;;;;;6266318;22;20188;-90
2021/10/29 07:52:01;;;;;;;7.30;4.70;;;11.70;99.90;;;;;;6237969;22;20224;-91
2021/10/29 07:54:27;;;;;;;7.20;3.37;;;12.40;99.90;;;;;;6238017;22;20254;-90
2021/10/29 07:56:52;;;;;;;7.13;5.03;;;12.90;99.90;;;;;;6237919;22;20243;-91
2021/10/29 07:59:22;;;;;;;6.90;5.13;;;13.60;99.90;;;;;;6264089;22;20192;-92
2021/10/29 08:01:52;;;;;;;7.40;3.37;;;14.10;99.90;;;;;;6266092;22;20157;-90
2021/10/29 08:04:21;;;;;;;5.40;3.77;;;13.90;99.90;;;;;;6213699;22;20744;-91
2021/10/29 08:06:48;;;;;;;5.10;3.10;;;14.00;99.90;;;;;;6237644;22;20590;-91
2021/10/29 08:09:14;;;;;;;3.63;3.10;;;14.10;99.90;;;;;;6264929;22;20615;-90
2021/10/29 08:11:40;;;;;;;6.80;3.87;;;14.30;99.90;;;;;;6264376;22;20199;-90
2021/10/29 08:14:06;;;;;;;4.67;3.67;;;14.10;99.90;;;;;;6264874;22;20201;-90
2021/10/29 08:16:31;;;;;;;4.93;3.60;;;13.30;99.90;;;;;;6189673;22;20672;-88
2021/10/29 08:18:57;;;;;;;5.70;3.70;;;12.90;99.90;;;;;;6236826;22;20192;-89
2021/10/29 08:21:23;;;;;;;7.57;4.27;;;12.60;99.90;;;;;;6211382;22;20188;-87
2021/10/29 08:23:49;;;;;;;9.77;4.43;;;12.50;99.90;;;;;;6236997;22;20215;-87
2021/10/29 08:26:15;;;;;;;5.83;4.30;;;12.30;99.90;;;;;;6236890;22;20192;-88
2021/10/29 08:28:41;;;;;;;8.80;4.83;;;12.30;99.90;;;;;;6235947;22;20160;-86
2021/10/29 08:31:08;;;;;;;5.23;3.43;;;12.40;99.90;;;;;;6212324;22;20149;-87
2021/10/29 08:33:33;;;;;;;4.83;3.10;;;12.40;99.90;;;;;;6262841;22;20185;-87
2021/10/29 08:36:03;;;;;;;8.87;5.63;;;12.40;99.90;;;;;;6237123;22;20198;-87
2021/10/29 08:38:29;;;;;;;4.87;3.17;;;12.40;99.90;;;;;;6236543;22;20597;-89
2021/10/29 08:40:56;;;;;;;6.67;4.53;;;12.40;99.90;;;;;;6211573;22;20545;-88
2021/10/29 08:43:21;;;;;;;4.80;3.47;;;12.50;99.90;;;;;;6245001;22;20153;-88
2021/10/29 08:45:47;;;;;;;3.00;2.27;;;12.50;99.90;;;;;;6276347;22;20774;-88
2021/10/29 08:48:13;;;;;;;4.90;3.43;;;12.50;99.90;;;;;;6210905;22;20204;-88
2021/10/29 08:50:39;;;;;;;4.83;3.60;;;12.50;99.90;;;;;;6210976;22;20640;-87
2021/10/29 08:53:06;;;;;;;8.20;4.40;;;12.60;99.90;;;;;;6236273;22;20612;-87
2021/10/29 08:55:34;;;;;;;8.20;4.30;;;12.70;99.90;;;;;;6264368;22;20157;-87
2021/10/29 08:58:04;;;;;;;5.07;3.30;;;12.70;99.90;;;;;;6262860;22;20197;-87
2021/10/29 09:00:44;;;;;;;7.87;3.07;;;12.80;99.90;;;;;;6262681;22;20219;-86
2021/10/29 09:03:26;;;;;;;5.77;3.40;;;12.90;99.90;;;;;;6262763;22;20198;-87
2021/10/29 09:06:18;;;;;;;4.60;3.40;;;12.90;99.90;;;;;;6216789;22;20185;-88
2021/10/29 09:09:03;;;;;;;6.03;4.13;;;12.90;99.90;;;;;;6266191;22;20193;-90
2021/10/29 09:31:36;;;;;;;19.13;5.17;;;13.20;99.90;;;;;;6246616;22;20200;-86
2021/10/29 09:34:11;;;;;;;7.40;4.67;;;13.30;99.90;;;;;;6241614;22;20261;-85
2021/10/29 09:36:40;;;;;;;3.40;2.70;;;13.40;99.90;;;;;;6241358;22;20192;-88
2021/10/29 09:39:13;;;;;;;6.07;4.20;;;13.40;99.90;;;;;;6267888;22;20211;-89
2021/10/29 09:41:40;;;;;;;8.63;3.83;;;13.50;99.90;;;;;;6268421;22;20200;-87
2021/10/29 09:44:12;;;;;;;5.63;3.30;;;13.50;99.90;;;;;;6216363;22;20199;-87
2021/10/29 09:46:57;;;;;;;5.73;3.67;;;13.60;99.90;;;;;;6242454;22;20160;-88
2021/10/29 09:49:31;;;;;;;6.20;3.83;;;13.70;99.90;;;;;;6242506;22;20200;-87
2021/10/29 09:57:21;;;;;;;6.23;4.03;;;13.90;99.90;;;;;;6242881;22;20193;-86
2021/10/29 09:59:51;;;;;;;7.60;3.57;;;13.90;99.90;;;;;;6241808;22;20287;-88
2021/10/29 10:02:22;;;;;;;8.13;4.00;;;13.90;99.90;;;;;;6239154;22;20275;-88
2021/10/29 10:04:52;;;;;;;4.00;2.90;;;14.00;99.90;;;;;;6242008;22;20149;-89
2021/10/29 10:07:23;;;;;;;5.47;3.60;;;14.10;99.90;;;;;;6217488;22;20187;-89
2021/10/29 10:09:57;;;;;;;3.30;2.90;;;14.30;99.90;;;;;;6242017;22;20247;-88
2021/10/29 10:12:27;;;;;;;4.07;2.53;;;14.30;99.90;;;;;;6268573;22;20193;-88
2021/10/29 10:14:59;;;;;;;4.50;3.23;;;14.40;99.90;;;;;;6267738;22;20216;-89
2021/10/29 10:17:25;;;;;;;5.13;3.50;;;14.50;99.90;;;;;;6243938;22;20184;-89
2021/10/29 10:19:56;;;;;;;7.30;4.13;;;14.60;99.90;;;;;;6267932;22;20157;-87
2021/10/29 10:22:24;;;;;;;3.07;2.70;;;14.60;99.90;;;;;;6243904;22;20224;-88
2021/10/29 10:25:05;;;;;;;7.40;3.20;;;14.70;99.90;;;;;;6241478;22;20459;-88
2021/10/29 10:42:15;;;;;;;8.13;3.30;;;15.10;99.90;;;;;;6243979;22;20258;-88
2021/10/29 10:45:00;;;;;;;4.20;3.57;;;15.20;99.90;;;;;;6267002;22;20226;-88
2021/10/29 10:47:26;;;;;;;3.80;2.63;;;15.20;99.90;;;;;;6266724;22;20221;-89
2021/10/29 10:50:08;;;;;;;9.37;3.70;;;15.20;99.90;;;;;;6240136;22;20219;-88
2021/10/29 10:53:08;;;;;;;4.30;3.23;;;15.40;99.90;;;;;;6243056;22;20156;-89
2021/10/29 11:04:51;;;;;;;3.37;2.53;;;16.10;99.90;;;;;;6245020;22;20566;-89
2021/10/29 11:10:24;;;;;;;5.40;2.53;;;16.20;99.90;;;;;;6248127;22;20200;-87
2021/10/29 11:12:50;;;;;;;7.13;3.73;;;16.50;99.90;;;;;;6241133;22;20196;-89
2021/10/29 11:15:21;;;;;;;5.00;3.00;;;16.60;99.90;;;;;;6240740;22;20224;-88
2021/10/29 11:17:51;;;;;;;6.53;3.80;;;16.80;99.90;;;;;;6267264;22;20297;-89
2021/10/29 11:20:37;;;;;;;5.33;4.37;;;17.00;99.90;;;;;;6241380;22;20192;-88
2021/10/29 11:23:08;;;;;;;6.10;3.00;;;17.10;99.90;;;;;;6268260;22;20192;-90
2021/10/29 11:25:52;;;;;;;5.20;2.97;;;16.90;99.90;;;;;;6242596;22;20146;-89
2021/10/29 11:28:25;;;;;;;5.70;3.93;;;16.80;99.90;;;;;;6268683;22;20176;-89
2021/10/29 11:30:57;;;;;;;5.13;3.80;;;16.70;99.90;;;;;;6240986;22;20283;-86
2021/10/29 11:33:23;;;;;;;4.00;3.33;;;16.60;99.90;;;;;;6241217;22;20569;-89
2021/10/29 11:36:04;;;;;;;7.00;3.03;;;16.70;99.90;;;;;;6216789;22;20219;-87
2021/10/29 11:38:33;;;;;;;4.53;2.97;;;16.80;99.90;;;;;;6216094;22;20273;-89
2021/10/29 11:41:01;;;;;;;4.30;3.47;;;16.80;99.90;;;;;;6268598;22;20157;-88
2021/10/29 11:43:31;;;;;;;4.60;3.70;;;16.70;99.90;;;;;;6268702;22;20157;-88
2021/10/29 11:46:00;;;;;;;3.27;2.97;;;16.50;99.90;;;;;;6241171;22;20647;-90
2021/10/29 11:48:26;;;;;;;8.03;3.07;;;16.50;99.90;;;;;;6241120;22;20192;-92
2021/10/29 11:51:13;;;;;;;4.93;3.17;;;16.30;99.90;;;;;;6215758;22;20330;-90
2021/10/29 11:53:50;;;;;;;6.23;4.30;;;16.20;99.90;;;;;;6240345;22;20196;-91
2021/10/29 11:57:06;;;;;;;8.03;3.13;;;16.30;99.90;;;;;;6267647;22;20188;-92
2021/10/29 12:01:54;;;;;;;3.43;3.00;;;16.20;99.90;;;;;;6269166;22;20157;-89
2021/10/29 12:07:18;;;;;;;4.60;2.43;;;16.10;99.90;;;;;;6267877;22;20230;-92
2021/10/29 12:09:52;;;;;;;6.17;3.40;;;16.00;99.90;;;;;;6240463;22;20213;-92
2021/10/29 12:12:21;;;;;;;6.17;3.73;;;16.00;99.90;;;;;;6216261;22;20900;-90
2021/10/29 12:14:52;;;;;;;4.63;3.40;;;16.00;99.90;;;;;;6235390;22;20213;-89
2021/10/29 12:17:23;;;;;;;4.00;2.90;;;16.00;99.90;;;;;;6236583;22;20193;-91
2021/10/29 12:19:54;;;;;;;5.47;3.53;;;16.10;99.90;;;;;;6236234;22;20149;-90
2021/10/29 12:25:34;;;;;;;4.33;2.53;;;16.30;99.90;;;;;;6230324;22;20560;-91
2021/10/29 12:30:34;;;;;;;7.33;3.73;;;16.50;99.90;;;;;;6238094;22;20236;-93
2021/10/29 13:01:26;;;;;;;4.30;3.27;;;16.00;99.90;;;;;;6238659;22;20178;-93
2021/10/29 13:04:15;;;;;;;4.70;3.00;;;16.00;99.90;;;;;;6235369;22;20501;-88
2021/10/29 13:06:53;;;;;;;2.23;2.03;;;16.00;99.90;;;;;;6235298;22;20197;-88
2021/10/29 13:09:21;;;;;;;1.87;1.70;;;16.00;99.90;;;;;;6235557;22;20212;-86
2021/10/29 13:11:55;;;;;;;5.03;2.53;;;16.00;99.90;;;;;;6209619;23;20227;-87
2021/10/29 13:14:31;;;;;;;3.47;2.47;;;16.00;99.90;;;;;;6235294;22;20648;-87
2021/10/29 13:16:58;;;;;;;3.53;2.57;;;15.90;99.90;;;;;;6235235;22;20167;-88
2021/10/29 13:19:47;;;;;;;3.07;2.77;;;15.90;99.90;;;;;;6213052;23;20504;-87
2021/10/29 13:27:59;;;;;;;6.27;2.50;;;16.00;99.90;;;;;;6238907;22;20233;-89
2021/10/29 14:40:34;;;;;;;4.57;3.10;;;15.60;99.90;;;;;;6220472;22;20188;-89
2021/10/29 14:43:15;;;;;;;5.23;3.80;;;15.60;99.90;;;;;;6191903;22;20204;-87
2021/10/29 14:45:52;;;;;;;7.37;3.20;;;15.60;99.90;;;;;;6245157;22;20204;-88
2021/10/29 15:04:33;;;;;;;4.47;3.13;;;15.30;99.90;;;;;;6243728;22;20179;-89
2021/10/29 15:18:00;;;;;;;3.30;2.93;;;15.10;99.90;;;;;;6266773;22;21028;-93
2021/10/29 15:26:51;;;;;;;7.17;3.17;;;14.90;99.90;;;;;;6245473;22;20204;-90
2021/10/29 15:28:52;;;;;;;8.50;3.70;;;14.80;99.90;;;;;;6225834;22;20201;-91
2021/10/29 15:42:25;;;;;;;3.33;2.50;;;14.80;99.90;;;;;;6268047;22;20670;-91
2021/10/29 15:45:06;;;;;;;3.30;3.00;;;14.80;99.90;;;;;;6245007;22;20197;-91
2021/10/29 15:47:44;;;;;;;7.57;3.07;;;14.90;99.90;;;;;;6244775;22;20193;-89
2021/10/29 15:50:13;;;;;;;4.47;2.77;;;14.90;99.90;;;;;;6243811;22;20206;-90
2021/10/29 15:52:39;;;;;;;4.80;3.00;;;14.90;99.90;;;;;;6240986;22;20156;-90
2021/10/29 15:55:09;;;;;;;5.30;3.23;;;14.90;99.90;;;;;;6268760;22;20187;-91
2021/10/29 15:57:47;;;;;;;6.40;3.13;;;14.90;99.90;;;;;;6217336;22;20227;-89
2021/10/29 16:00:35;;;;;;;4.83;3.10;;;14.90;99.90;;;;;;6222874;22;20200;-90
2021/10/29 16:03:11;;;;;;;4.27;2.70;;;14.90;99.90;;;;;;6250286;22;20221;-91
2021/10/29 16:19:26;;;;;;;6.23;2.80;;;14.90;99.90;;;;;;6233229;22;20449;-92
2021/10/29 16:21:52;;;;;;;4.60;2.83;;;14.90;99.90;;;;;;6207325;22;20208;-90
2021/10/29 16:24:18;;;;;;;4.50;3.00;;;15.00;99.90;;;;;;6240321;22;20197;-91
2021/10/29 16:26:47;;;;;;;5.30;2.97;;;15.00;99.90;;;;;;6216550;22;20250;-90
2021/10/29 16:29:15;;;;;;;3.83;2.53;;;15.00;99.90;;;;;;6192049;22;20201;-88
2021/10/29 16:31:45;;;;;;;4.43;3.00;;;15.00;99.90;;;;;;6267867;22;20194;-88
2021/10/29 16:34:12;;;;;;;3.77;2.43;;;15.00;99.90;;;;;;6242791;22;20163;-91
2021/10/29 16:36:38;;;;;;;5.97;3.90;;;14.90;99.90;;;;;;6215465;22;20199;-94
2021/10/29 16:39:04;;;;;;;4.03;2.87;;;14.90;99.90;;;;;;6215955;22;20197;-89
2021/10/29 16:41:30;;;;;;;6.23;3.73;;;14.90;99.90;;;;;;6215856;22;20184;-84
2021/10/29 16:43:56;;;;;;;4.93;2.80;;;14.90;99.90;;;;;;6240371;22;20500;-90
2021/10/29 16:46:22;;;;;;;5.70;3.23;;;14.90;99.90;;;;;;6190934;22;20157;-90
2021/10/29 16:48:47;;;;;;;7.67;3.37;;;14.90;99.90;;;;;;6264024;22;20227;-91
2021/10/29 16:51:14;;;;;;;6.00;3.30;;;14.90;99.90;;;;;;6238169;22;20203;-91
2021/10/29 16:53:41;;;;;;;8.90;3.93;;;14.90;99.90;;;;;;6237759;22;20207;-90
2021/10/29 16:56:09;;;;;;;4.23;2.90;;;14.90;99.90;;;;;;6213176;22;20195;-91
2021/10/29 16:58:35;;;;;;;4.17;3.00;;;15.00;99.90;;;;;;6240432;22;20691;-89
2021/10/29 17:01:01;;;;;;;6.67;3.63;;;15.00;99.90;;;;;;6213118;22;20290;-90
2021/10/29 17:03:27;;;;;;;6.93;3.47;;;15.00;99.90;;;;;;6188592;22;20628;-90
2021/10/29 17:05:55;;;;;;;3.50;3.03;;;14.90;99.90;;;;;;6213216;22;21099;-90
2021/10/29 17:08:21;;;;;;;4.20;3.77;;;15.00;99.90;;;;;;6214588;22;20196;-90
2021/10/29 17:10:47;;;;;;;6.30;3.10;;;15.00;99.90;;;;;;6238938;22;20191;-90
2021/10/29 17:13:13;;;;;;;4.70;3.93;;;14.90;99.90;;;;;;6239556;22;20740;-91
2021/10/29 17:15:38;;;;;;;4.90;3.33;;;14.90;99.90;;;;;;6239746;22;20212;-88
2021/10/29 17:18:05;;;;;;;9.40;3.57;;;14.90;99.90;;;;;;6238797;22;20201;-90
2021/10/29 17:20:33;;;;;;;5.13;3.10;;;14.80;99.90;;;;;;6266041;22;20206;-91
2021/10/29 17:22:59;;;;;;;9.47;3.07;;;14.80;99.90;;;;;;6266388;22;20184;-91
2021/10/29 17:25:25;;;;;;;4.83;3.53;;;14.80;99.90;;;;;;6218146;22;20863;-90
2021/10/29 17:27:51;;;;;;;8.40;3.63;;;14.80;99.90;;;;;;6216524;22;20242;-91
2021/10/29 17:30:17;;;;;;;5.33;2.97;;;14.70;99.90;;;;;;6190912;22;20514;-90
2021/10/29 17:32:46;;;;;;;5.70;3.73;;;14.70;99.90;;;;;;6213773;22;20283;-93
2021/10/29 17:35:12;;;;;;;6.20;3.10;;;14.70;99.90;;;;;;6242648;22;20204;-92
2021/10/29 17:37:38;;;;;;;3.37;3.00;;;14.70;99.90;;;;;;6239320;22;20998;-93